createdAt,value
2018-04-07T00:00:22.337Z,8.19
2018-04-07T00:02:49.701Z,8.02
2018-04-07T00:05:17.049Z,7.97
2018-04-07T00:07:44.369Z,7.87
2018-04-07T00:10:14.354Z,7.97
2018-04-07T00:12:41.674Z,7.90
2018-04-07T00:15:09.011Z,7.85
2018-04-07T00:17:36.390Z,7.82
2018-04-07T00:20:07.169Z,7.88
2018-04-07T00:22:34.522Z,7.80
2018-04-07T00:25:01.919Z,7.74
2018-04-07T00:27:29.249Z,7.80
2018-04-07T00:29:56.601Z,7.81
2018-04-07T00:32:23.800Z,7.79
2018-04-07T00:34:51.114Z,7.61
2018-04-07T00:37:18.431Z,7.41
2018-04-07T00:39:45.791Z,7.29
2018-04-07T00:42:14.686Z,7.17
2018-04-07T00:44:41.999Z,7.05
2018-04-07T00:47:09.336Z,6.98
2018-04-07T00:49:36.715Z,6.99
2018-04-07T00:52:04.029Z,6.86
2018-04-07T00:54:31.324Z,6.77
2018-04-07T00:57:02.105Z,6.79
2018-04-07T00:59:30.131Z,6.76
2018-04-07T01:01:57.333Z,6.61
2018-04-07T01:04:28.085Z,6.66
2018-04-07T01:06:55.521Z,6.62
2018-04-07T01:09:22.785Z,6.59
2018-04-07T01:11:54.669Z,6.44
2018-04-07T01:14:22.026Z,6.45
2018-04-07T01:16:49.374Z,6.32
2018-04-07T01:19:20.097Z,6.21
2018-04-07T01:21:47.542Z,6.28
2018-04-07T01:24:19.560Z,6.70
2018-04-07T01:26:46.893Z,6.75
2018-04-07T01:29:17.441Z,6.61
2018-04-07T01:31:45.854Z,6.59
2018-04-07T01:34:13.167Z,6.57
2018-04-07T01:36:43.130Z,6.57
2018-04-07T01:39:10.546Z,6.61
2018-04-07T01:41:43.297Z,6.26
2018-04-07T01:44:10.618Z,6.22
2018-04-07T01:46:40.956Z,6.39
2018-04-07T01:49:08.274Z,6.25
2018-04-07T01:51:38.927Z,6.16
2018-04-07T01:54:06.402Z,5.98
2018-04-07T01:56:37.058Z,5.84
2018-04-07T01:59:04.429Z,5.77
2018-04-07T02:01:33.113Z,5.73
2018-04-07T02:04:00.406Z,5.82
2018-04-07T02:06:28.824Z,5.76
2018-04-07T02:08:56.204Z,5.72
2018-04-07T02:11:23.775Z,5.53
2018-04-07T02:13:52.177Z,5.48
2018-04-07T02:16:19.495Z,5.45
2018-04-07T02:18:49.421Z,5.47
2018-04-07T02:21:16.756Z,5.42
2018-04-07T02:23:46.775Z,5.44
2018-04-07T02:26:14.283Z,5.46
2018-04-07T02:28:44.199Z,5.49
2018-04-07T02:31:11.511Z,5.39
2018-04-07T02:33:42.778Z,5.29
2018-04-07T02:36:10.083Z,5.29
2018-04-07T02:38:42.009Z,5.30
2018-04-07T02:41:09.896Z,5.24
2018-04-07T02:43:39.860Z,5.24
2018-04-07T02:46:08.285Z,5.23
2018-04-07T02:48:35.630Z,5.16
2018-04-07T02:51:07.742Z,5.15
2018-04-07T02:53:36.130Z,5.30
2018-04-07T02:56:04.625Z,5.54
2018-04-07T02:58:32.680Z,5.25
2018-04-07T03:01:03.209Z,5.29
2018-04-07T03:03:31.620Z,5.13
2018-04-07T03:06:02.509Z,4.98
2018-04-07T03:08:30.918Z,4.92
2018-04-07T03:10:59.348Z,4.89
2018-04-07T03:13:29.977Z,4.95
2018-04-07T03:15:58.438Z,4.91
2018-04-07T03:18:26.853Z,4.87
2018-04-07T03:20:55.267Z,4.86
2018-04-07T03:23:23.725Z,4.77
2018-04-07T03:25:52.133Z,4.74
2018-04-07T03:28:22.645Z,4.68
2018-04-07T03:30:51.418Z,5.01
2018-04-07T03:33:19.829Z,5.24
2018-04-07T03:35:50.604Z,5.37
2018-04-07T03:38:19.012Z,5.37
2018-04-07T03:40:47.429Z,5.26
2018-04-07T03:43:17.990Z,5.30
2018-04-07T03:45:46.444Z,5.20
2018-04-07T03:48:14.889Z,5.00
2018-04-07T03:50:43.338Z,4.80
2018-04-07T03:53:11.753Z,4.82
2018-04-07T03:55:40.162Z,4.74
2018-04-07T03:58:08.590Z,4.70
2018-04-07T04:00:39.054Z,4.71
2018-04-07T04:03:09.285Z,4.67
2018-04-07T04:05:40.751Z,4.68
2018-04-07T04:08:09.182Z,4.62
2018-04-07T04:10:37.600Z,4.60
2018-04-07T04:13:06.014Z,4.54
2018-04-07T04:15:36.234Z,4.48
2018-04-07T04:18:06.753Z,4.47
2018-04-07T04:20:35.176Z,4.38
2018-04-07T04:23:03.597Z,4.32
2018-04-07T04:25:32.017Z,4.32
2018-04-07T04:28:00.413Z,4.26
2018-04-07T04:30:28.840Z,4.24
2018-04-07T04:32:59.370Z,4.33
2018-04-07T04:35:30.721Z,4.37
2018-04-07T04:37:59.140Z,4.27
2018-04-07T04:40:29.113Z,4.31
2018-04-07T04:42:57.517Z,4.26
2018-04-07T04:45:27.629Z,4.20
2018-04-07T04:48:00.300Z,4.12
2018-04-07T04:50:28.718Z,4.16
2018-04-07T04:52:57.109Z,4.17
2018-04-07T04:55:25.528Z,4.22
2018-04-07T04:57:53.929Z,4.15
2018-04-07T05:00:22.348Z,4.13
2018-04-07T05:02:52.838Z,4.10
2018-04-07T05:05:23.225Z,4.15
2018-04-07T05:07:51.654Z,4.03
2018-04-07T05:10:24.057Z,4.03
2018-04-07T05:12:54.545Z,4.03
2018-04-07T05:15:27.080Z,4.10
2018-04-07T05:17:57.280Z,4.17
2018-04-07T05:20:28.324Z,4.12
2018-04-07T05:22:56.784Z,4.17
2018-04-07T05:25:25.202Z,4.40
2018-04-07T05:27:53.617Z,4.75
2018-04-07T05:30:23.680Z,5.16
2018-04-07T05:32:52.138Z,5.42
2018-04-07T05:35:21.841Z,5.76
2018-04-07T05:37:50.279Z,6.10
2018-04-07T05:40:18.721Z,6.37
2018-04-07T05:42:47.135Z,6.39
2018-04-07T05:45:17.786Z,6.56
2018-04-07T05:47:46.214Z,6.78
2018-04-07T05:50:15.799Z,6.81
2018-04-07T05:52:45.670Z,7.04
2018-04-07T05:55:14.096Z,7.37
2018-04-07T05:57:43.794Z,7.63
2018-04-07T06:00:12.434Z,7.87
2018-04-07T06:02:41.180Z,8.16
2018-04-07T06:05:09.590Z,8.39
2018-04-07T06:07:38.124Z,8.78
2018-04-07T06:10:06.697Z,9.11
2018-04-07T06:12:35.138Z,9.47
2018-04-07T06:15:03.558Z,9.61
2018-04-07T06:17:33.230Z,9.82
2018-04-07T06:20:01.612Z,10.27
2018-04-07T06:22:30.380Z,10.42
2018-04-07T06:24:58.758Z,10.70
2018-04-07T06:27:27.777Z,11.08
2018-04-07T06:29:56.202Z,11.37
2018-04-07T06:32:24.633Z,11.63
2018-04-07T06:34:53.048Z,11.79
2018-04-07T06:37:20.420Z,12.04
2018-04-07T06:39:50.105Z,12.45
2018-04-07T06:42:18.533Z,12.76
2018-04-07T06:44:46.938Z,12.82
2018-04-07T06:47:15.354Z,12.94
2018-04-07T06:49:42.650Z,13.06
2018-04-07T06:52:13.355Z,13.27
2018-04-07T06:54:41.777Z,13.43
2018-04-07T06:57:11.124Z,13.68
2018-04-07T06:59:40.455Z,13.97
2018-04-07T07:02:09.944Z,14.24
2018-04-07T07:04:38.370Z,14.27
2018-04-07T07:07:06.829Z,14.60
2018-04-07T07:09:34.193Z,15.15
2018-04-07T07:12:02.628Z,15.43
2018-04-07T07:14:31.056Z,16.04
2018-04-07T07:17:00.514Z,16.74
2018-04-07T07:19:28.948Z,17.27
2018-04-07T07:21:56.271Z,17.98
2018-04-07T07:24:27.253Z,18.53
2018-04-07T07:26:55.697Z,19.33
2018-04-07T07:29:24.122Z,20.00
2018-04-07T07:31:53.035Z,20.58
2018-04-07T07:34:21.439Z,20.76
2018-04-07T07:36:49.888Z,21.51
2018-04-07T07:39:17.205Z,22.18
2018-04-07T07:41:45.824Z,22.91
2018-04-07T07:44:15.377Z,23.60
2018-04-07T07:46:43.783Z,24.22
2018-04-07T07:49:12.249Z,24.42
2018-04-07T07:51:40.688Z,24.94
2018-04-07T07:54:09.112Z,25.46
2018-04-07T07:56:36.457Z,25.87
2018-04-07T07:59:04.906Z,26.47
2018-04-07T08:01:33.393Z,26.03
2018-04-07T08:04:02.835Z,26.91
2018-04-07T08:06:32.259Z,26.61
2018-04-07T08:09:02.167Z,26.82
2018-04-07T08:11:30.637Z,26.73
2018-04-07T08:14:01.050Z,27.14
2018-04-07T08:16:29.479Z,27.03
2018-04-07T08:18:58.170Z,27.73
2018-04-07T08:21:27.592Z,28.20
2018-04-07T08:23:56.692Z,28.71
2018-04-07T08:26:24.074Z,29.47
2018-04-07T08:28:52.433Z,29.80
2018-04-07T08:31:20.896Z,29.97
2018-04-07T08:33:50.310Z,29.94
2018-04-07T08:36:20.257Z,29.82
2018-04-07T08:38:48.713Z,29.60
2018-04-07T08:41:17.135Z,28.50
2018-04-07T08:43:50.118Z,28.18
2018-04-07T08:46:18.484Z,28.64
2018-04-07T08:48:48.328Z,27.87
2018-04-07T08:51:19.225Z,28.15
2018-04-07T08:53:50.093Z,28.76
2018-04-07T08:56:18.516Z,29.36
2018-04-07T08:58:46.982Z,29.73
2018-04-07T09:01:15.336Z,29.70
2018-04-07T09:03:43.837Z,29.24
2018-04-07T09:06:12.260Z,29.39
2018-04-07T09:08:40.737Z,30.00
2018-04-07T09:11:08.058Z,29.64
2018-04-07T09:13:38.104Z,30.04
2018-04-07T09:16:06.538Z,30.21
2018-04-07T09:18:34.972Z,30.63
2018-04-07T09:21:02.311Z,30.46
2018-04-07T09:23:31.739Z,30.83
2018-04-07T09:25:59.018Z,30.96
2018-04-07T09:28:28.717Z,31.54
2018-04-07T09:31:02.063Z,32.04
2018-04-07T09:33:30.529Z,31.26
2018-04-07T09:35:57.847Z,31.28
2018-04-07T09:38:25.194Z,31.24
2018-04-07T09:40:53.594Z,31.44
2018-04-07T09:43:20.903Z,31.87
2018-04-07T09:45:48.246Z,32.37
2018-04-07T09:48:18.660Z,32.21
2018-04-07T09:50:46.070Z,31.97
2018-04-07T09:53:13.358Z,32.37
2018-04-07T09:55:41.833Z,31.77
2018-04-07T09:58:09.153Z,31.99
2018-04-07T10:00:37.649Z,32.31
2018-04-07T10:03:04.940Z,31.84
2018-04-07T10:05:32.555Z,32.13
2018-04-07T10:08:00.962Z,31.82
2018-04-07T10:10:29.017Z,31.58
2018-04-07T10:12:57.464Z,31.83
2018-04-07T10:15:24.759Z,32.20
2018-04-07T10:17:52.805Z,32.43
2018-04-07T10:20:20.224Z,32.84
2018-04-07T10:22:47.579Z,33.06
2018-04-07T10:25:16.021Z,32.56
2018-04-07T10:27:44.099Z,32.20
2018-04-07T10:30:13.729Z,32.17
2018-04-07T10:32:44.599Z,31.93
2018-04-07T10:35:11.941Z,31.13
2018-04-07T10:37:39.282Z,31.82
2018-04-07T10:40:06.607Z,32.11
2018-04-07T10:42:36.082Z,31.52
2018-04-07T10:45:03.428Z,30.48
2018-04-07T10:47:32.699Z,29.97
2018-04-07T10:49:59.983Z,30.75
2018-04-07T10:52:29.713Z,31.37
2018-04-07T10:54:57.801Z,32.26
2018-04-07T10:57:26.223Z,32.23
2018-04-07T10:59:53.588Z,32.79
2018-04-07T11:05:10.130Z,32.62
2018-04-07T11:07:37.417Z,32.39
2018-04-07T11:10:05.849Z,31.92
2018-04-07T11:12:33.182Z,31.54
2018-04-07T11:15:00.549Z,31.94
2018-04-07T11:17:28.097Z,32.10
2018-04-07T11:19:55.434Z,31.40
2018-04-07T11:22:22.759Z,31.37
2018-04-07T11:24:50.085Z,31.04
2018-04-07T11:27:18.077Z,30.75
2018-04-07T11:29:45.454Z,30.51
2018-04-07T11:32:13.867Z,30.16
2018-04-07T11:34:41.216Z,29.79
2018-04-07T11:37:09.692Z,29.56
2018-04-07T11:39:37.026Z,29.26
2018-04-07T11:42:04.339Z,28.77
2018-04-07T11:44:31.727Z,28.67
2018-04-07T11:46:59.122Z,28.41
2018-04-07T11:49:27.578Z,28.00
2018-04-07T11:51:54.894Z,27.53
2018-04-07T11:54:22.270Z,27.46
2018-04-07T11:56:49.594Z,27.48
2018-04-07T11:59:18.081Z,27.66
2018-04-07T12:01:45.493Z,27.70
2018-04-07T12:04:13.901Z,27.29
2018-04-07T12:06:42.333Z,27.30
2018-04-07T12:09:09.658Z,27.31
2018-04-07T12:11:37.023Z,27.45
2018-04-07T12:14:04.336Z,27.36
2018-04-07T12:16:31.699Z,26.86
2018-04-07T12:19:00.122Z,26.92
2018-04-07T12:21:27.474Z,26.75
2018-04-07T12:23:55.884Z,26.94
2018-04-07T12:26:24.308Z,26.60
2018-04-07T12:28:51.622Z,26.72
2018-04-07T12:31:20.037Z,26.66
2018-04-07T12:33:48.099Z,26.39
2018-04-07T12:36:16.560Z,26.20
2018-04-07T12:38:43.842Z,26.33
2018-04-07T12:41:12.589Z,26.48
2018-04-07T12:43:40.646Z,26.01
2018-04-07T12:46:09.959Z,25.97
2018-04-07T12:48:37.353Z,26.15
2018-04-07T12:51:05.837Z,26.14
2018-04-07T12:53:33.962Z,25.91
2018-04-07T12:56:02.458Z,25.78
2018-04-07T12:58:29.843Z,25.43
2018-04-07T13:00:58.268Z,25.39
2018-04-07T13:03:25.606Z,25.30
2018-04-07T13:05:54.006Z,25.25
2018-04-07T13:08:21.321Z,25.12
2018-04-07T13:10:49.749Z,25.13
2018-04-07T13:13:17.070Z,25.01
2018-04-07T13:15:45.603Z,24.97
2018-04-07T13:18:12.938Z,24.91
2018-04-07T13:20:41.583Z,24.83
2018-04-07T13:23:08.950Z,24.80
2018-04-07T13:25:37.383Z,24.75
2018-04-07T13:28:05.514Z,24.67
2018-04-07T13:30:34.014Z,24.78
2018-04-07T13:33:01.332Z,24.70
2018-04-07T13:35:30.185Z,24.84
2018-04-07T13:37:57.511Z,24.80
2018-04-07T13:40:25.951Z,24.74
2018-04-07T13:42:53.458Z,24.84
2018-04-07T13:45:21.894Z,24.59
2018-04-07T13:47:49.303Z,24.56
2018-04-07T13:50:17.864Z,24.36
2018-04-07T13:52:46.643Z,24.27
2018-04-07T13:55:14.021Z,24.16
2018-04-07T13:57:42.389Z,24.07
2018-04-07T14:00:09.786Z,24.11
2018-04-07T14:02:38.246Z,24.25
2018-04-07T14:05:05.671Z,24.14
2018-04-07T14:07:34.081Z,24.01
2018-04-07T14:10:01.421Z,24.10
2018-04-07T14:12:29.841Z,23.94
2018-04-07T14:14:57.186Z,23.90
2018-04-07T14:17:25.607Z,23.75
2018-04-07T14:19:52.916Z,23.68
2018-04-07T14:22:21.343Z,23.59
2018-04-07T14:24:48.699Z,23.48
2018-04-07T14:27:17.129Z,23.72
2018-04-07T14:29:44.458Z,23.79
2018-04-07T14:32:12.881Z,23.54
2018-04-07T14:34:40.314Z,23.55
2018-04-07T14:37:08.744Z,23.52
2018-04-07T14:39:36.060Z,23.58
2018-04-07T14:42:04.501Z,23.61
2018-04-07T14:44:31.876Z,23.52
2018-04-07T14:47:00.304Z,23.64
2018-04-07T14:49:27.666Z,23.59
2018-04-07T14:51:56.089Z,23.50
2018-04-07T14:54:23.445Z,23.40
2018-04-07T14:56:51.823Z,23.55
2018-04-07T14:59:19.922Z,23.54
2018-04-07T15:01:48.345Z,23.56
2018-04-07T15:04:15.682Z,23.49
2018-04-07T15:06:42.980Z,23.39
2018-04-07T15:09:11.068Z,23.19
2018-04-07T15:11:38.368Z,23.29
2018-04-07T15:14:05.698Z,23.32
2018-04-07T15:16:33.036Z,23.20
2018-04-07T15:19:01.471Z,23.21
2018-04-07T15:21:28.769Z,23.05
2018-04-07T15:23:56.126Z,23.04
2018-04-07T15:26:23.470Z,22.94
2018-04-07T15:28:50.783Z,22.85
2018-04-07T15:31:18.166Z,22.83
2018-04-07T15:33:45.470Z,22.74
2018-04-07T15:36:12.778Z,22.75
2018-04-07T15:38:40.125Z,22.69
2018-04-07T15:41:07.654Z,22.64
2018-04-07T15:43:34.990Z,22.74
2018-04-07T15:46:02.366Z,22.64
2018-04-07T15:48:29.732Z,22.68
2018-04-07T15:50:57.039Z,22.64
2018-04-07T15:53:24.342Z,22.59
2018-04-07T15:55:51.691Z,22.61
2018-04-07T15:58:19.044Z,22.63
2018-04-07T16:00:47.422Z,22.62
2018-04-07T16:03:14.754Z,22.64
2018-04-07T16:05:42.878Z,22.47
2018-04-07T16:08:10.259Z,22.48
2018-04-07T16:10:37.619Z,22.49
2018-04-07T16:13:04.964Z,22.54
2018-04-07T16:15:32.264Z,22.62
2018-04-07T16:17:59.613Z,22.45
2018-04-07T16:20:27.025Z,22.39
2018-04-07T16:22:54.349Z,22.43
2018-04-07T16:25:21.766Z,22.41
2018-04-07T16:27:49.113Z,22.37
2018-04-07T16:30:16.497Z,22.32
2018-04-07T16:32:43.905Z,22.29
2018-04-07T16:35:11.247Z,22.11
2018-04-07T16:37:38.598Z,22.09
2018-04-07T16:40:05.959Z,22.03
2018-04-07T16:42:33.285Z,22.14
2018-04-07T16:45:00.634Z,22.11
2018-04-07T16:47:28.712Z,22.03
2018-04-07T16:49:56.046Z,22.16
2018-04-07T16:52:23.429Z,22.08
2018-04-07T16:54:50.739Z,21.95
2018-04-07T16:57:18.067Z,22.05
2018-04-07T16:59:45.368Z,22.11
2018-04-07T17:02:13.552Z,22.07
2018-04-07T17:04:41.597Z,22.02
2018-04-07T17:07:09.638Z,22.00
2018-04-07T17:09:36.990Z,21.83
2018-04-07T17:12:04.334Z,21.75
2018-04-07T17:14:31.725Z,21.65
2018-04-07T17:16:59.129Z,21.53
2018-04-07T17:19:26.488Z,21.47
2018-04-07T17:21:53.793Z,21.54
2018-04-07T17:24:21.148Z,21.48
2018-04-07T17:26:49.235Z,21.37
2018-04-07T17:29:17.294Z,21.39
2018-04-07T17:31:44.623Z,21.20
2018-04-07T17:34:12.910Z,21.03
2018-04-07T17:36:40.202Z,21.16
2018-04-07T17:39:07.563Z,21.11
2018-04-07T17:41:35.343Z,21.00
2018-04-07T17:44:02.695Z,20.93
2018-04-07T17:46:30.051Z,20.89
2018-04-07T17:49:05.991Z,20.68
2018-04-07T17:51:25.437Z,20.55
2018-04-07T17:53:52.778Z,20.41
2018-04-07T17:56:20.135Z,20.26
2018-04-07T17:58:47.489Z,20.20
2018-04-07T18:01:14.869Z,20.06
2018-04-07T18:03:42.180Z,20.00
2018-04-07T18:06:09.528Z,19.93
2018-04-07T18:08:36.904Z,19.88
2018-04-07T18:11:05.080Z,19.75
2018-04-07T18:13:32.395Z,19.59
2018-04-07T18:15:59.774Z,19.47
2018-04-07T18:18:27.098Z,19.32
2018-04-07T18:20:54.466Z,19.11
2018-04-07T18:23:22.566Z,19.05
2018-04-07T18:25:49.900Z,19.16
2018-04-07T18:28:17.225Z,18.96
2018-04-07T18:30:44.534Z,18.90
2018-04-07T18:33:11.968Z,18.73
2018-04-07T18:35:40.057Z,18.77
2018-04-07T18:38:08.323Z,18.62
2018-04-07T18:40:35.684Z,18.48
2018-04-07T18:43:03.023Z,18.44
2018-04-07T18:45:31.165Z,18.30
2018-04-07T18:47:58.517Z,18.10
2018-04-07T18:50:25.844Z,18.00
2018-04-07T18:52:53.243Z,17.82
2018-04-07T18:55:20.838Z,17.79
2018-04-07T18:57:48.891Z,17.72
2018-04-07T19:00:16.221Z,17.61
2018-04-07T19:02:43.577Z,17.54
2018-04-07T19:05:10.899Z,17.47
2018-04-07T19:07:38.328Z,17.46
2018-04-07T19:10:05.705Z,17.41
2018-04-07T19:12:33.062Z,17.33
2018-04-07T19:15:00.475Z,17.18
2018-04-07T19:17:27.847Z,17.15
2018-04-07T19:19:55.191Z,17.22
2018-04-07T19:22:22.530Z,17.16
2018-04-07T19:24:50.028Z,17.12
2018-04-07T19:27:18.087Z,17.02
2018-04-07T19:29:46.190Z,16.89
2018-04-07T19:32:13.526Z,16.94
2018-04-07T19:34:40.877Z,16.87
2018-04-07T19:37:08.977Z,16.78
2018-04-07T19:39:36.308Z,16.82
2018-04-07T19:42:03.682Z,16.74
2018-04-07T19:44:31.015Z,16.76
2018-04-07T19:46:59.104Z,16.71
2018-04-07T19:49:26.411Z,16.68
2018-04-07T19:51:53.758Z,16.60
2018-04-07T19:54:21.071Z,16.59
2018-04-07T19:56:48.476Z,16.55
2018-04-07T19:59:15.839Z,16.52
2018-04-07T20:01:43.211Z,16.54
2018-04-07T20:04:10.578Z,16.55
2018-04-07T20:06:37.994Z,16.49
2018-04-07T20:09:05.371Z,16.38
2018-04-07T20:11:32.731Z,16.35
2018-04-07T20:14:00.829Z,16.33
2018-04-07T20:16:28.174Z,16.26
2018-04-07T20:18:55.565Z,16.16
2018-04-07T20:21:22.904Z,16.16
2018-04-07T20:23:50.257Z,16.15
2018-04-07T20:26:17.591Z,16.09
2018-04-07T20:28:44.962Z,16.07
2018-04-07T20:31:12.351Z,16.02
2018-04-07T20:33:39.685Z,16.00
2018-04-07T20:36:06.994Z,15.98
2018-04-07T20:38:37.806Z,15.88
2018-04-07T20:41:05.217Z,15.91
2018-04-07T20:43:36.147Z,15.89
2018-04-07T20:46:03.497Z,15.86
2018-04-07T20:48:33.927Z,15.84
2018-04-07T20:51:01.309Z,15.77
2018-04-07T20:53:39.349Z,15.69
2018-04-07T20:56:07.393Z,15.71
2018-04-07T20:58:37.920Z,15.72
2018-04-07T21:01:06.301Z,15.71
2018-04-07T21:03:34.793Z,15.76
2018-04-07T21:06:02.214Z,15.75
2018-04-07T21:08:32.286Z,15.74
2018-04-07T21:10:59.649Z,15.72
2018-04-07T21:13:30.222Z,15.72
2018-04-07T21:15:58.632Z,15.64
2018-04-07T21:18:27.116Z,15.62
2018-04-07T21:20:55.205Z,15.70
2018-04-07T21:23:25.581Z,15.62
2018-04-07T21:25:54.042Z,15.64
2018-04-07T21:28:22.455Z,15.65
2018-04-07T21:30:49.848Z,15.62
2018-04-07T21:33:20.061Z,15.52
2018-04-07T21:35:48.519Z,15.45
2018-04-07T21:38:20.553Z,15.41
2018-04-07T21:40:51.056Z,15.30
2018-04-07T21:43:19.502Z,15.26
2018-04-07T21:45:46.858Z,15.21
2018-04-07T21:48:19.396Z,15.27
2018-04-07T21:50:47.829Z,15.18
2018-04-07T21:53:16.275Z,15.15
2018-04-07T21:55:46.678Z,15.07
2018-04-07T21:58:16.653Z,15.02
2018-04-07T22:00:45.030Z,15.04
2018-04-07T22:03:13.476Z,15.00
2018-04-07T22:05:41.858Z,15.04
2018-04-07T22:08:10.513Z,14.95
2018-04-07T22:10:41.097Z,14.98
2018-04-07T22:13:09.733Z,15.11
2018-04-07T22:15:39.781Z,15.00
2018-04-07T22:18:08.217Z,14.93
2018-04-07T22:20:36.728Z,14.89
2018-04-07T22:23:07.236Z,14.69
2018-04-07T22:25:35.702Z,14.61
2018-04-07T22:28:03.137Z,14.80
2018-04-07T22:30:33.701Z,14.84
2018-04-07T22:33:03.289Z,14.86
2018-04-07T22:35:30.719Z,14.75
2018-04-07T22:38:01.223Z,14.79
2018-04-07T22:40:28.576Z,14.74
2018-04-07T22:43:00.233Z,14.66
2018-04-07T22:45:27.545Z,14.76
2018-04-07T22:48:00.110Z,14.62
2018-04-07T22:50:27.814Z,14.53
2018-04-07T22:52:58.338Z,14.57
2018-04-07T22:55:26.742Z,14.45
2018-04-07T22:57:54.078Z,14.44
2018-04-07T23:00:28.175Z,14.39
2018-04-07T23:02:56.504Z,14.44
2018-04-07T23:05:24.976Z,14.42
2018-04-07T23:07:55.525Z,14.25
2018-04-07T23:10:26.059Z,14.25
2018-04-07T23:12:56.462Z,14.24
2018-04-07T23:15:24.859Z,14.20
2018-04-07T23:17:53.260Z,14.16
2018-04-07T23:20:21.739Z,14.14
2018-04-07T23:22:50.109Z,14.16
2018-04-07T23:25:18.541Z,14.15
2018-04-07T23:27:45.898Z,14.12
2018-04-07T23:30:19.501Z,14.10
2018-04-07T23:32:48.176Z,14.11
2018-04-07T23:35:18.145Z,14.06
2018-04-07T23:37:46.501Z,14.05
2018-04-07T23:40:14.938Z,14.03
2018-04-07T23:42:43.346Z,14.03
2018-04-07T23:45:13.772Z,14.07
2018-04-07T23:47:46.201Z,14.02
2018-04-07T23:50:14.637Z,14.01
2018-04-07T23:52:43.157Z,13.95
2018-04-07T23:55:11.530Z,14.09
2018-04-07T23:57:39.957Z,14.14
